sensor_id;sensor_type;location;lat;lon;timestamp;P1;durP1;ratioP1;P2;durP2;ratioP2
59938;SDS011;45801;51.810;19.444;2022-09-12T00:00:43;9.10;;;3.20;;
59938;SDS011;45801;51.810;19.444;2022-09-12T00:03:29;7.10;;;3.30;;
59938;SDS011;45801;51.810;19.444;2022-09-12T00:05:55;7.70;;;3.30;;
59938;SDS011;45801;51.810;19.444;2022-09-12T00:08:22;6.80;;;3.10;;
59938;SDS011;45801;51.810;19.444;2022-09-12T00:10:48;7.00;;;2.90;;
59938;SDS011;45801;51.810;19.444;2022-09-12T00:13:15;8.10;;;3.30;;
59938;SDS011;45801;51.810;19.444;2022-09-12T00:15:42;8.60;;;3.60;;
59938;SDS011;45801;51.810;19.444;2022-09-12T00:18:12;9.20;;;3.40;;
59938;SDS011;45801;51.810;19.444;2022-09-12T00:20:43;9.20;;;3.30;;
59938;SDS011;45801;51.810;19.444;2022-09-12T00:23:11;8.00;;;3.10;;
59938;SDS011;45801;51.810;19.444;2022-09-12T00:25:42;7.50;;;3.10;;
59938;SDS011;45801;51.810;19.444;2022-09-12T00:28:10;8.20;;;3.80;;
59938;SDS011;45801;51.810;19.444;2022-09-12T00:30:44;9.30;;;3.40;;
59938;SDS011;45801;51.810;19.444;2022-09-12T00:33:12;10.60;;;3.50;;
59938;SDS011;45801;51.810;19.444;2022-09-12T00:35:41;8.30;;;3.30;;
59938;SDS011;45801;51.810;19.444;2022-09-12T00:38:13;10.50;;;3.50;;
59938;SDS011;45801;51.810;19.444;2022-09-12T00:40:40;8.60;;;3.70;;
59938;SDS011;45801;51.810;19.444;2022-09-12T00:43:31;7.80;;;3.30;;
59938;SDS011;45801;51.810;19.444;2022-09-12T00:46:12;7.50;;;3.60;;
59938;SDS011;45801;51.810;19.444;2022-09-12T00:49:01;8.50;;;3.30;;
59938;SDS011;45801;51.810;19.444;2022-09-12T00:51:33;9.40;;;3.00;;
59938;SDS011;45801;51.810;19.444;2022-09-12T00:54:03;8.60;;;3.50;;
59938;SDS011;45801;51.810;19.444;2022-09-12T00:56:36;8.00;;;4.10;;
59938;SDS011;45801;51.810;19.444;2022-09-12T00:59:11;7.60;;;3.40;;
59938;SDS011;45801;51.810;19.444;2022-09-12T01:01:42;9.60;;;4.00;;
59938;SDS011;45801;51.810;19.444;2022-09-12T01:04:12;9.20;;;3.50;;
59938;SDS011;45801;51.810;19.444;2022-09-12T01:06:40;9.40;;;3.30;;
59938;SDS011;45801;51.810;19.444;2022-09-12T01:09:12;7.50;;;3.00;;
59938;SDS011;45801;51.810;19.444;2022-09-12T01:11:42;8.90;;;3.70;;
59938;SDS011;45801;51.810;19.444;2022-09-12T01:14:14;6.50;;;2.90;;
59938;SDS011;45801;51.810;19.444;2022-09-12T01:16:43;9.50;;;3.50;;
59938;SDS011;45801;51.810;19.444;2022-09-12T01:24:31;8.10;;;3.50;;
59938;SDS011;45801;51.810;19.444;2022-09-12T01:32:30;7.90;;;3.40;;
59938;SDS011;45801;51.810;19.444;2022-09-12T01:35:09;8.30;;;3.40;;
59938;SDS011;45801;51.810;19.444;2022-09-12T01:43:22;8.40;;;3.20;;
59938;SDS011;45801;51.810;19.444;2022-09-12T01:48:48;8.20;;;3.40;;
59938;SDS011;45801;51.810;19.444;2022-09-12T01:51:27;7.90;;;3.40;;
59938;SDS011;45801;51.810;19.444;2022-09-12T01:54:05;7.10;;;3.40;;
59938;SDS011;45801;51.810;19.444;2022-09-12T01:56:37;7.30;;;3.30;;
59938;SDS011;45801;51.810;19.444;2022-09-12T01:59:08;10.10;;;3.80;;
59938;SDS011;45801;51.810;19.444;2022-09-12T02:01:43;7.80;;;3.40;;
59938;SDS011;45801;51.810;19.444;2022-09-12T02:04:18;8.30;;;3.70;;
59938;SDS011;45801;51.810;19.444;2022-09-12T02:07:07;9.40;;;3.80;;
59938;SDS011;45801;51.810;19.444;2022-09-12T02:09:48;9.60;;;3.70;;
59938;SDS011;45801;51.810;19.444;2022-09-12T02:12:22;9.10;;;3.70;;
59938;SDS011;45801;51.810;19.444;2022-09-12T02:14:54;9.30;;;3.70;;
59938;SDS011;45801;51.810;19.444;2022-09-12T02:17:27;7.70;;;3.10;;
59938;SDS011;45801;51.810;19.444;2022-09-12T02:22:35;8.30;;;3.70;;
59938;SDS011;45801;51.810;19.444;2022-09-12T02:25:04;8.10;;;3.50;;
59938;SDS011;45801;51.810;19.444;2022-09-12T02:27:43;7.00;;;3.30;;
59938;SDS011;45801;51.810;19.444;2022-09-12T02:30:14;8.10;;;3.50;;
59938;SDS011;45801;51.810;19.444;2022-09-12T02:32:44;9.30;;;3.80;;
59938;SDS011;45801;51.810;19.444;2022-09-12T02:40:36;8.90;;;3.40;;
59938;SDS011;45801;51.810;19.444;2022-09-12T02:43:04;8.50;;;4.00;;
59938;SDS011;45801;51.810;19.444;2022-09-12T02:45:32;9.10;;;3.70;;
59938;SDS011;45801;51.810;19.444;2022-09-12T02:51:02;8.50;;;4.00;;
59938;SDS011;45801;51.810;19.444;2022-09-12T02:53:29;6.90;;;3.70;;
59938;SDS011;45801;51.810;19.444;2022-09-12T02:55:56;11.50;;;3.90;;
59938;SDS011;45801;51.810;19.444;2022-09-12T02:58:23;11.20;;;4.30;;
59938;SDS011;45801;51.810;19.444;2022-09-12T03:09:19;8.10;;;3.70;;
59938;SDS011;45801;51.810;19.444;2022-09-12T03:12:12;8.30;;;3.50;;
59938;SDS011;45801;51.810;19.444;2022-09-12T03:20:14;9.50;;;4.30;;
59938;SDS011;45801;51.810;19.444;2022-09-12T03:22:51;8.10;;;3.80;;
59938;SDS011;45801;51.810;19.444;2022-09-12T03:25:39;10.20;;;3.90;;
59938;SDS011;45801;51.810;19.444;2022-09-12T03:28:11;7.90;;;3.40;;
59938;SDS011;45801;51.810;19.444;2022-09-12T03:30:44;9.40;;;4.20;;
59938;SDS011;45801;51.810;19.444;2022-09-12T03:33:13;8.70;;;4.50;;
59938;SDS011;45801;51.810;19.444;2022-09-12T03:35:41;9.40;;;5.10;;
59938;SDS011;45801;51.810;19.444;2022-09-12T03:38:08;8.60;;;3.70;;
59938;SDS011;45801;51.810;19.444;2022-09-12T03:40:36;8.40;;;3.90;;
59938;SDS011;45801;51.810;19.444;2022-09-12T03:43:04;8.60;;;3.80;;
59938;SDS011;45801;51.810;19.444;2022-09-12T03:45:33;8.50;;;4.20;;
59938;SDS011;45801;51.810;19.444;2022-09-12T03:48:01;8.20;;;3.50;;
59938;SDS011;45801;51.810;19.444;2022-09-12T03:50:28;9.40;;;4.00;;
59938;SDS011;45801;51.810;19.444;2022-09-12T03:52:54;8.10;;;3.50;;
59938;SDS011;45801;51.810;19.444;2022-09-12T03:55:21;8.40;;;3.70;;
59938;SDS011;45801;51.810;19.444;2022-09-12T03:57:51;10.20;;;3.70;;
59938;SDS011;45801;51.810;19.444;2022-09-12T04:00:18;7.20;;;3.80;;
59938;SDS011;45801;51.810;19.444;2022-09-12T04:02:45;8.80;;;3.90;;
59938;SDS011;45801;51.810;19.444;2022-09-12T04:05:11;7.40;;;3.80;;
59938;SDS011;45801;51.810;19.444;2022-09-12T04:07:37;8.60;;;4.00;;
59938;SDS011;45801;51.810;19.444;2022-09-12T04:10:04;9.80;;;4.00;;
59938;SDS011;45801;51.810;19.444;2022-09-12T04:12:31;7.20;;;3.70;;
59938;SDS011;45801;51.810;19.444;2022-09-12T04:14:57;10.20;;;3.90;;
59938;SDS011;45801;51.810;19.444;2022-09-12T04:17:23;7.90;;;3.70;;
59938;SDS011;45801;51.810;19.444;2022-09-12T04:19:50;10.80;;;3.60;;
59938;SDS011;45801;51.810;19.444;2022-09-12T04:22:16;8.30;;;4.10;;
59938;SDS011;45801;51.810;19.444;2022-09-12T04:24:42;8.20;;;4.20;;
59938;SDS011;45801;51.810;19.444;2022-09-12T04:27:09;8.70;;;4.00;;
59938;SDS011;45801;51.810;19.444;2022-09-12T04:29:35;10.50;;;4.40;;
59938;SDS011;45801;51.810;19.444;2022-09-12T04:32:01;7.60;;;3.50;;
59938;SDS011;45801;51.810;19.444;2022-09-12T04:34:29;7.30;;;3.70;;
59938;SDS011;45801;51.810;19.444;2022-09-12T04:36:57;7.80;;;3.50;;
59938;SDS011;45801;51.810;19.444;2022-09-12T04:39:24;8.80;;;3.80;;
59938;SDS011;45801;51.810;19.444;2022-09-12T04:41:50;8.20;;;4.20;;
59938;SDS011;45801;51.810;19.444;2022-09-12T04:44:16;10.60;;;4.20;;
59938;SDS011;45801;51.810;19.444;2022-09-12T04:46:44;8.90;;;3.70;;
59938;SDS011;45801;51.810;19.444;2022-09-12T04:49:12;8.50;;;4.20;;
59938;SDS011;45801;51.810;19.444;2022-09-12T04:51:41;8.60;;;4.30;;
59938;SDS011;45801;51.810;19.444;2022-09-12T04:54:12;7.90;;;4.50;;
59938;SDS011;45801;51.810;19.444;2022-09-12T04:56:40;8.90;;;4.80;;
59938;SDS011;45801;51.810;19.444;2022-09-12T04:59:09;9.60;;;4.60;;
59938;SDS011;45801;51.810;19.444;2022-09-12T05:01:36;9.70;;;4.40;;
59938;SDS011;45801;51.810;19.444;2022-09-12T05:04:03;10.70;;;4.30;;
59938;SDS011;45801;51.810;19.444;2022-09-12T05:06:31;7.90;;;3.70;;
59938;SDS011;45801;51.810;19.444;2022-09-12T05:09:00;8.60;;;4.00;;
59938;SDS011;45801;51.810;19.444;2022-09-12T05:11:28;8.80;;;3.90;;
59938;SDS011;45801;51.810;19.444;2022-09-12T05:13:57;9.50;;;3.80;;
59938;SDS011;45801;51.810;19.444;2022-09-12T05:16:24;9.50;;;4.30;;
59938;SDS011;45801;51.810;19.444;2022-09-12T05:18:54;8.60;;;4.10;;
59938;SDS011;45801;51.810;19.444;2022-09-12T05:21:22;9.30;;;3.70;;
59938;SDS011;45801;51.810;19.444;2022-09-12T05:23:55;8.50;;;3.90;;
59938;SDS011;45801;51.810;19.444;2022-09-12T05:26:23;8.20;;;3.80;;
59938;SDS011;45801;51.810;19.444;2022-09-12T05:28:50;9.60;;;4.20;;
59938;SDS011;45801;51.810;19.444;2022-09-12T05:31:18;9.30;;;4.30;;
59938;SDS011;45801;51.810;19.444;2022-09-12T05:33:46;9.40;;;3.70;;
59938;SDS011;45801;51.810;19.444;2022-09-12T05:36:16;8.60;;;4.20;;
59938;SDS011;45801;51.810;19.444;2022-09-12T05:38:50;9.00;;;4.00;;
59938;SDS011;45801;51.810;19.444;2022-09-12T05:43:50;8.90;;;4.00;;
59938;SDS011;45801;51.810;19.444;2022-09-12T05:46:18;8.00;;;3.40;;
59938;SDS011;45801;51.810;19.444;2022-09-12T05:48:46;11.50;;;3.90;;
59938;SDS011;45801;51.810;19.444;2022-09-12T05:51:15;11.10;;;3.90;;
59938;SDS011;45801;51.810;19.444;2022-09-12T05:53:49;9.70;;;4.00;;
59938;SDS011;45801;51.810;19.444;2022-09-12T05:56:19;9.50;;;3.70;;
59938;SDS011;45801;51.810;19.444;2022-09-12T05:58:56;8.70;;;3.60;;
59938;SDS011;45801;51.810;19.444;2022-09-12T06:01:25;9.10;;;3.90;;
59938;SDS011;45801;51.810;19.444;2022-09-12T06:03:53;7.30;;;3.20;;
59938;SDS011;45801;51.810;19.444;2022-09-12T06:06:21;10.20;;;4.10;;
59938;SDS011;45801;51.810;19.444;2022-09-12T06:08:50;8.20;;;3.80;;
59938;SDS011;45801;51.810;19.444;2022-09-12T06:11:19;9.30;;;3.20;;
59938;SDS011;45801;51.810;19.444;2022-09-12T06:13:48;7.90;;;3.40;;
59938;SDS011;45801;51.810;19.444;2022-09-12T06:16:17;9.10;;;3.40;;
59938;SDS011;45801;51.810;19.444;2022-09-12T06:18:50;7.90;;;3.70;;
59938;SDS011;45801;51.810;19.444;2022-09-12T06:21:18;7.80;;;3.50;;
59938;SDS011;45801;51.810;19.444;2022-09-12T06:23:47;9.20;;;3.60;;
59938;SDS011;45801;51.810;19.444;2022-09-12T06:26:14;9.40;;;3.50;;
59938;SDS011;45801;51.810;19.444;2022-09-12T06:28:43;8.60;;;3.50;;
59938;SDS011;45801;51.810;19.444;2022-09-12T06:31:11;9.00;;;3.50;;
59938;SDS011;45801;51.810;19.444;2022-09-12T06:33:40;9.20;;;3.10;;
59938;SDS011;45801;51.810;19.444;2022-09-12T06:36:11;8.90;;;3.60;;
59938;SDS011;45801;51.810;19.444;2022-09-12T06:38:41;7.80;;;3.70;;
59938;SDS011;45801;51.810;19.444;2022-09-12T06:41:08;8.10;;;3.00;;
59938;SDS011;45801;51.810;19.444;2022-09-12T06:43:39;7.90;;;3.10;;
59938;SDS011;45801;51.810;19.444;2022-09-12T06:46:07;7.10;;;2.80;;
59938;SDS011;45801;51.810;19.444;2022-09-12T06:48:34;9.30;;;3.80;;
59938;SDS011;45801;51.810;19.444;2022-09-12T06:51:14;8.00;;;3.50;;
59938;SDS011;45801;51.810;19.444;2022-09-12T06:53:43;7.50;;;3.00;;
59938;SDS011;45801;51.810;19.444;2022-09-12T06:56:11;7.10;;;3.00;;
59938;SDS011;45801;51.810;19.444;2022-09-12T06:58:46;6.80;;;2.60;;
59938;SDS011;45801;51.810;19.444;2022-09-12T07:03:55;7.70;;;2.90;;
59938;SDS011;45801;51.810;19.444;2022-09-12T07:06:26;6.80;;;3.20;;
59938;SDS011;45801;51.810;19.444;2022-09-12T07:08:57;9.40;;;3.10;;
59938;SDS011;45801;51.810;19.444;2022-09-12T07:11:25;9.10;;;2.90;;
59938;SDS011;45801;51.810;19.444;2022-09-12T07:13:54;7.20;;;3.10;;
59938;SDS011;45801;51.810;19.444;2022-09-12T07:16:21;8.50;;;3.30;;
59938;SDS011;45801;51.810;19.444;2022-09-12T07:18:49;8.40;;;3.00;;
59938;SDS011;45801;51.810;19.444;2022-09-12T07:21:17;8.40;;;3.00;;
59938;SDS011;45801;51.810;19.444;2022-09-12T07:23:44;7.50;;;2.80;;
59938;SDS011;45801;51.810;19.444;2022-09-12T07:26:11;7.70;;;2.90;;
59938;SDS011;45801;51.810;19.444;2022-09-12T07:28:39;7.90;;;2.90;;
59938;SDS011;45801;51.810;19.444;2022-09-12T07:31:08;8.00;;;2.80;;
59938;SDS011;45801;51.810;19.444;2022-09-12T07:33:37;7.60;;;2.70;;
59938;SDS011;45801;51.810;19.444;2022-09-12T07:36:09;7.70;;;2.30;;
59938;SDS011;45801;51.810;19.444;2022-09-12T07:38:38;8.20;;;2.40;;
59938;SDS011;45801;51.810;19.444;2022-09-12T07:41:25;8.40;;;2.70;;
59938;SDS011;45801;51.810;19.444;2022-09-12T07:43:55;7.90;;;2.60;;
59938;SDS011;45801;51.810;19.444;2022-09-12T07:46:26;7.10;;;2.80;;
59938;SDS011;45801;51.810;19.444;2022-09-12T07:48:56;5.90;;;2.50;;
59938;SDS011;45801;51.810;19.444;2022-09-12T07:51:23;8.10;;;2.70;;
59938;SDS011;45801;51.810;19.444;2022-09-12T07:53:51;6.80;;;2.30;;
59938;SDS011;45801;51.810;19.444;2022-09-12T07:56:18;6.20;;;2.30;;
59938;SDS011;45801;51.810;19.444;2022-09-12T07:58:45;7.20;;;2.50;;
59938;SDS011;45801;51.810;19.444;2022-09-12T08:01:12;5.70;;;2.00;;
59938;SDS011;45801;51.810;19.444;2022-09-12T08:03:45;5.80;;;2.10;;
59938;SDS011;45801;51.810;19.444;2022-09-12T08:06:17;6.20;;;2.10;;
59938;SDS011;45801;51.810;19.444;2022-09-12T08:08:45;6.70;;;2.20;;
59938;SDS011;45801;51.810;19.444;2022-09-12T08:11:14;8.00;;;2.10;;
59938;SDS011;45801;51.810;19.444;2022-09-12T08:13:42;6.70;;;2.40;;
59938;SDS011;45801;51.810;19.444;2022-09-12T08:16:10;8.60;;;2.00;;
59938;SDS011;45801;51.810;19.444;2022-09-12T08:18:39;6.30;;;1.90;;
59938;SDS011;45801;51.810;19.444;2022-09-12T08:21:11;6.20;;;2.10;;
59938;SDS011;45801;51.810;19.444;2022-09-12T08:23:39;6.50;;;2.10;;
59938;SDS011;45801;51.810;19.444;2022-09-12T08:26:08;7.20;;;2.30;;
59938;SDS011;45801;51.810;19.444;2022-09-12T08:28:35;5.90;;;1.70;;
59938;SDS011;45801;51.810;19.444;2022-09-12T08:31:03;6.60;;;2.30;;
59938;SDS011;45801;51.810;19.444;2022-09-12T08:33:34;5.90;;;1.90;;
59938;SDS011;45801;51.810;19.444;2022-09-12T08:36:04;5.50;;;2.00;;
59938;SDS011;45801;51.810;19.444;2022-09-12T08:38:32;5.10;;;1.80;;
59938;SDS011;45801;51.810;19.444;2022-09-12T08:44:02;5.70;;;1.80;;
59938;SDS011;45801;51.810;19.444;2022-09-12T08:49:03;6.10;;;1.80;;
59938;SDS011;45801;51.810;19.444;2022-09-12T08:51:36;5.60;;;1.50;;
59938;SDS011;45801;51.810;19.444;2022-09-12T08:54:04;6.20;;;1.80;;
59938;SDS011;45801;51.810;19.444;2022-09-12T08:56:43;4.40;;;1.80;;
59938;SDS011;45801;51.810;19.444;2022-09-12T08:59:10;6.60;;;1.90;;
59938;SDS011;45801;51.810;19.444;2022-09-12T09:01:40;5.00;;;1.50;;
59938;SDS011;45801;51.810;19.444;2022-09-12T09:04:23;4.30;;;1.60;;
59938;SDS011;45801;51.810;19.444;2022-09-12T09:15:22;7.50;;;1.80;;
59938;SDS011;45801;51.810;19.444;2022-09-12T09:17:52;4.90;;;1.60;;
59938;SDS011;45801;51.810;19.444;2022-09-12T09:20:26;5.20;;;1.70;;
59938;SDS011;45801;51.810;19.444;2022-09-12T09:25:54;4.60;;;1.60;;
59938;SDS011;45801;51.810;19.444;2022-09-12T09:31:17;4.20;;;1.60;;
59938;SDS011;45801;51.810;19.444;2022-09-12T09:33:49;7.10;;;1.70;;
59938;SDS011;45801;51.810;19.444;2022-09-12T09:36:20;6.00;;;1.80;;
59938;SDS011;45801;51.810;19.444;2022-09-12T09:38:55;7.40;;;1.70;;
59938;SDS011;45801;51.810;19.444;2022-09-12T09:44:35;3.50;;;1.40;;
59938;SDS011;45801;51.810;19.444;2022-09-12T09:47:02;6.00;;;1.40;;
59938;SDS011;45801;51.810;19.444;2022-09-12T09:49:29;4.50;;;1.50;;
59938;SDS011;45801;51.810;19.444;2022-09-12T09:52:00;5.10;;;1.70;;
59938;SDS011;45801;51.810;19.444;2022-09-12T09:54:50;5.60;;;1.50;;
59938;SDS011;45801;51.810;19.444;2022-09-12T10:03:20;4.50;;;1.80;;
59938;SDS011;45801;51.810;19.444;2022-09-12T10:05:57;5.30;;;1.80;;
59938;SDS011;45801;51.810;19.444;2022-09-12T10:08:48;7.10;;;1.60;;
59938;SDS011;45801;51.810;19.444;2022-09-12T10:11:17;5.20;;;1.60;;
59938;SDS011;45801;51.810;19.444;2022-09-12T10:13:56;3.30;;;1.40;;
59938;SDS011;45801;51.810;19.444;2022-09-12T10:16:24;3.70;;;1.30;;
59938;SDS011;45801;51.810;19.444;2022-09-12T10:18:54;4.70;;;1.50;;
59938;SDS011;45801;51.810;19.444;2022-09-12T10:24:45;4.90;;;1.50;;
59938;SDS011;45801;51.810;19.444;2022-09-12T10:29:43;5.50;;;1.30;;
59938;SDS011;45801;51.810;19.444;2022-09-12T10:34:58;3.60;;;1.40;;
59938;SDS011;45801;51.810;19.444;2022-09-12T10:37:37;4.80;;;1.30;;
59938;SDS011;45801;51.810;19.444;2022-09-12T10:40:07;4.10;;;1.50;;
59938;SDS011;45801;51.810;19.444;2022-09-12T10:42:49;3.70;;;1.40;;
59938;SDS011;45801;51.810;19.444;2022-09-12T10:47:58;4.00;;;1.50;;
59938;SDS011;45801;51.810;19.444;2022-09-12T10:50:28;4.90;;;1.50;;
59938;SDS011;45801;51.810;19.444;2022-09-12T10:53:11;5.60;;;1.60;;
59938;SDS011;45801;51.810;19.444;2022-09-12T10:55:56;5.10;;;1.40;;
59938;SDS011;45801;51.810;19.444;2022-09-12T11:12:40;5.00;;;1.60;;
59938;SDS011;45801;51.810;19.444;2022-09-12T11:26:16;4.00;;;1.20;;
59938;SDS011;45801;51.810;19.444;2022-09-12T11:42:45;4.20;;;1.10;;
59938;SDS011;45801;51.810;19.444;2022-09-12T11:45:16;3.00;;;1.20;;
59938;SDS011;45801;51.810;19.444;2022-09-12T11:47:50;3.70;;;1.40;;
59938;SDS011;45801;51.810;19.444;2022-09-12T11:50:21;4.50;;;1.30;;
59938;SDS011;45801;51.810;19.444;2022-09-12T11:52:54;4.30;;;1.30;;
59938;SDS011;45801;51.810;19.444;2022-09-12T11:55:26;4.10;;;1.20;;
59938;SDS011;45801;51.810;19.444;2022-09-12T11:57:57;5.40;;;1.30;;
59938;SDS011;45801;51.810;19.444;2022-09-12T12:00:29;3.20;;;1.00;;
59938;SDS011;45801;51.810;19.444;2022-09-12T12:08:21;3.10;;;1.30;;
59938;SDS011;45801;51.810;19.444;2022-09-12T12:10:50;2.50;;;1.10;;
59938;SDS011;45801;51.810;19.444;2022-09-12T12:18:29;4.00;;;1.30;;
59938;SDS011;45801;51.810;19.444;2022-09-12T12:24:00;3.80;;;1.20;;
59938;SDS011;45801;51.810;19.444;2022-09-12T12:26:40;2.10;;;1.10;;
59938;SDS011;45801;51.810;19.444;2022-09-12T12:36:59;4.30;;;1.20;;
59938;SDS011;45801;51.810;19.444;2022-09-12T12:50:07;4.80;;;1.30;;
59938;SDS011;45801;51.810;19.444;2022-09-12T12:52:59;5.90;;;1.80;;
59938;SDS011;45801;51.810;19.444;2022-09-12T12:58:07;4.60;;;1.30;;
59938;SDS011;45801;51.810;19.444;2022-09-12T13:01:02;5.10;;;1.80;;
59938;SDS011;45801;51.810;19.444;2022-09-12T13:03:44;5.30;;;1.50;;
59938;SDS011;45801;51.810;19.444;2022-09-12T13:06:21;4.70;;;1.10;;
59938;SDS011;45801;51.810;19.444;2022-09-12T13:08:59;6.00;;;1.60;;
59938;SDS011;45801;51.810;19.444;2022-09-12T13:11:31;4.80;;;1.30;;
59938;SDS011;45801;51.810;19.444;2022-09-12T13:14:03;4.50;;;1.30;;
59938;SDS011;45801;51.810;19.444;2022-09-12T13:16:53;4.20;;;1.20;;
59938;SDS011;45801;51.810;19.444;2022-09-12T13:19:26;4.00;;;1.30;;
59938;SDS011;45801;51.810;19.444;2022-09-12T13:24:29;4.00;;;1.20;;
59938;SDS011;45801;51.810;19.444;2022-09-12T13:26:56;5.90;;;1.30;;
59938;SDS011;45801;51.810;19.444;2022-09-12T13:29:24;2.40;;;1.10;;
59938;SDS011;45801;51.810;19.444;2022-09-12T13:31:52;4.60;;;1.30;;
59938;SDS011;45801;51.810;19.444;2022-09-12T13:34:23;4.20;;;1.10;;
59938;SDS011;45801;51.810;19.444;2022-09-12T13:39:57;3.60;;;1.20;;
59938;SDS011;45801;51.810;19.444;2022-09-12T13:45:08;4.30;;;1.20;;
59938;SDS011;45801;51.810;19.444;2022-09-12T13:47:46;4.00;;;1.50;;
59938;SDS011;45801;51.810;19.444;2022-09-12T13:50:20;5.20;;;1.30;;
59938;SDS011;45801;51.810;19.444;2022-09-12T13:53:00;4.80;;;1.10;;
59938;SDS011;45801;51.810;19.444;2022-09-12T13:55:32;4.10;;;1.20;;
59938;SDS011;45801;51.810;19.444;2022-09-12T13:58:02;5.30;;;1.50;;
59938;SDS011;45801;51.810;19.444;2022-09-12T14:00:30;5.00;;;1.30;;
59938;SDS011;45801;51.810;19.444;2022-09-12T14:03:00;3.80;;;1.20;;
59938;SDS011;45801;51.810;19.444;2022-09-12T14:05:56;4.60;;;1.20;;
59938;SDS011;45801;51.810;19.444;2022-09-12T14:08:23;3.20;;;1.40;;
59938;SDS011;45801;51.810;19.444;2022-09-12T14:10:49;3.30;;;1.20;;
59938;SDS011;45801;51.810;19.444;2022-09-12T14:13:17;5.80;;;2.10;;
59938;SDS011;45801;51.810;19.444;2022-09-12T14:15:46;4.20;;;1.30;;
59938;SDS011;45801;51.810;19.444;2022-09-12T14:18:26;5.00;;;1.40;;
59938;SDS011;45801;51.810;19.444;2022-09-12T14:20:54;4.70;;;1.40;;
59938;SDS011;45801;51.810;19.444;2022-09-12T14:23:27;9.40;;;2.60;;
59938;SDS011;45801;51.810;19.444;2022-09-12T14:25:55;6.30;;;2.00;;
59938;SDS011;45801;51.810;19.444;2022-09-12T14:28:25;7.70;;;1.90;;
59938;SDS011;45801;51.810;19.444;2022-09-12T14:30:59;8.20;;;1.80;;
59938;SDS011;45801;51.810;19.444;2022-09-12T14:33:39;4.50;;;1.30;;
59938;SDS011;45801;51.810;19.444;2022-09-12T14:36:33;6.40;;;1.80;;
59938;SDS011;45801;51.810;19.444;2022-09-12T14:39:03;3.40;;;1.40;;
59938;SDS011;45801;51.810;19.444;2022-09-12T14:41:38;4.20;;;1.20;;
59938;SDS011;45801;51.810;19.444;2022-09-12T14:44:07;3.80;;;1.20;;
59938;SDS011;45801;51.810;19.444;2022-09-12T14:46:41;3.50;;;1.00;;
59938;SDS011;45801;51.810;19.444;2022-09-12T14:49:12;3.60;;;1.30;;
59938;SDS011;45801;51.810;19.444;2022-09-12T14:57:05;4.30;;;1.30;;
59938;SDS011;45801;51.810;19.444;2022-09-12T15:04:44;4.40;;;1.40;;
59938;SDS011;45801;51.810;19.444;2022-09-12T15:07:20;5.50;;;1.80;;
59938;SDS011;45801;51.810;19.444;2022-09-12T15:09:58;3.20;;;1.00;;
59938;SDS011;45801;51.810;19.444;2022-09-12T15:12:26;5.90;;;1.20;;
59938;SDS011;45801;51.810;19.444;2022-09-12T15:14:54;4.00;;;1.40;;
59938;SDS011;45801;51.810;19.444;2022-09-12T15:17:25;4.40;;;1.40;;
59938;SDS011;45801;51.810;19.444;2022-09-12T15:19:52;4.30;;;1.30;;
59938;SDS011;45801;51.810;19.444;2022-09-12T15:22:18;4.70;;;1.40;;
59938;SDS011;45801;51.810;19.444;2022-09-12T15:24:49;4.70;;;1.50;;
59938;SDS011;45801;51.810;19.444;2022-09-12T15:27:15;7.70;;;1.80;;
59938;SDS011;45801;51.810;19.444;2022-09-12T15:29:42;4.70;;;1.90;;
59938;SDS011;45801;51.810;19.444;2022-09-12T15:32:11;5.60;;;1.40;;
59938;SDS011;45801;51.810;19.444;2022-09-12T15:34:41;5.70;;;1.40;;
59938;SDS011;45801;51.810;19.444;2022-09-12T15:37:11;4.50;;;1.40;;
59938;SDS011;45801;51.810;19.444;2022-09-12T15:39:39;4.60;;;1.30;;
59938;SDS011;45801;51.810;19.444;2022-09-12T15:42:07;4.90;;;1.20;;
59938;SDS011;45801;51.810;19.444;2022-09-12T15:44:34;4.80;;;1.30;;
59938;SDS011;45801;51.810;19.444;2022-09-12T15:47:01;5.40;;;1.40;;
59938;SDS011;45801;51.810;19.444;2022-09-12T15:49:28;5.80;;;1.60;;
59938;SDS011;45801;51.810;19.444;2022-09-12T15:51:54;5.00;;;1.80;;
59938;SDS011;45801;51.810;19.444;2022-09-12T15:54:21;5.10;;;1.40;;
59938;SDS011;45801;51.810;19.444;2022-09-12T15:56:48;6.50;;;1.70;;
59938;SDS011;45801;51.810;19.444;2022-09-12T15:59:14;5.00;;;1.60;;
59938;SDS011;45801;51.810;19.444;2022-09-12T16:01:41;6.20;;;2.00;;
59938;SDS011;45801;51.810;19.444;2022-09-12T16:04:23;6.40;;;1.70;;
59938;SDS011;45801;51.810;19.444;2022-09-12T16:06:51;5.40;;;1.50;;
59938;SDS011;45801;51.810;19.444;2022-09-12T16:09:19;4.50;;;1.60;;
59938;SDS011;45801;51.810;19.444;2022-09-12T16:11:46;6.30;;;1.80;;
59938;SDS011;45801;51.810;19.444;2022-09-12T16:14:14;6.50;;;2.00;;
59938;SDS011;45801;51.810;19.444;2022-09-12T16:16:42;4.70;;;2.00;;
59938;SDS011;45801;51.810;19.444;2022-09-12T16:19:09;5.80;;;1.80;;
59938;SDS011;45801;51.810;19.444;2022-09-12T16:21:37;5.80;;;1.90;;
59938;SDS011;45801;51.810;19.444;2022-09-12T16:24:04;4.90;;;1.90;;
59938;SDS011;45801;51.810;19.444;2022-09-12T16:26:30;6.60;;;2.00;;
59938;SDS011;45801;51.810;19.444;2022-09-12T16:28:57;6.70;;;2.40;;
59938;SDS011;45801;51.810;19.444;2022-09-12T16:31:24;6.00;;;2.30;;
59938;SDS011;45801;51.810;19.444;2022-09-12T16:33:52;7.40;;;2.30;;
59938;SDS011;45801;51.810;19.444;2022-09-12T16:36:19;7.20;;;2.60;;
59938;SDS011;45801;51.810;19.444;2022-09-12T16:38:47;7.50;;;2.80;;
59938;SDS011;45801;51.810;19.444;2022-09-12T16:41:16;6.20;;;1.90;;
59938;SDS011;45801;51.810;19.444;2022-09-12T16:43:44;7.10;;;2.60;;
59938;SDS011;45801;51.810;19.444;2022-09-12T16:46:16;7.70;;;3.20;;
59938;SDS011;45801;51.810;19.444;2022-09-12T16:51:14;6.30;;;2.30;;
59938;SDS011;45801;51.810;19.444;2022-09-12T16:53:41;10.30;;;3.30;;
59938;SDS011;45801;51.810;19.444;2022-09-12T16:56:08;7.30;;;2.60;;
59938;SDS011;45801;51.810;19.444;2022-09-12T16:58:35;9.90;;;2.90;;
59938;SDS011;45801;51.810;19.444;2022-09-12T17:01:04;8.00;;;3.20;;
59938;SDS011;45801;51.810;19.444;2022-09-12T17:03:31;7.80;;;3.20;;
59938;SDS011;45801;51.810;19.444;2022-09-12T17:05:59;8.00;;;2.90;;
59938;SDS011;45801;51.810;19.444;2022-09-12T17:08:27;7.10;;;2.90;;
59938;SDS011;45801;51.810;19.444;2022-09-12T17:11:28;7.10;;;3.20;;
59938;SDS011;45801;51.810;19.444;2022-09-12T17:13:49;8.30;;;3.10;;
59938;SDS011;45801;51.810;19.444;2022-09-12T17:16:17;8.20;;;3.70;;
59938;SDS011;45801;51.810;19.444;2022-09-12T17:18:44;9.20;;;4.30;;
59938;SDS011;45801;51.810;19.444;2022-09-12T17:21:11;10.90;;;3.30;;
59938;SDS011;45801;51.810;19.444;2022-09-12T17:23:39;9.60;;;3.70;;
59938;SDS011;45801;51.810;19.444;2022-09-12T17:26:06;8.30;;;3.70;;
59938;SDS011;45801;51.810;19.444;2022-09-12T17:28:35;9.30;;;4.70;;
59938;SDS011;45801;51.810;19.444;2022-09-12T17:31:03;9.90;;;4.70;;
59938;SDS011;45801;51.810;19.444;2022-09-12T17:33:33;10.30;;;4.80;;
59938;SDS011;45801;51.810;19.444;2022-09-12T17:36:00;11.00;;;4.80;;
59938;SDS011;45801;51.810;19.444;2022-09-12T17:38:30;10.20;;;4.40;;
59938;SDS011;45801;51.810;19.444;2022-09-12T17:41:03;10.60;;;4.30;;
59938;SDS011;45801;51.810;19.444;2022-09-12T17:43:34;10.70;;;4.40;;
59938;SDS011;45801;51.810;19.444;2022-09-12T17:46:03;8.90;;;3.80;;
59938;SDS011;45801;51.810;19.444;2022-09-12T17:48:30;7.90;;;3.80;;
59938;SDS011;45801;51.810;19.444;2022-09-12T17:50:56;7.60;;;3.20;;
59938;SDS011;45801;51.810;19.444;2022-09-12T17:53:24;9.00;;;3.40;;
59938;SDS011;45801;51.810;19.444;2022-09-12T17:55:50;7.20;;;2.90;;
59938;SDS011;45801;51.810;19.444;2022-09-12T17:58:16;7.80;;;3.00;;